Time;durP1;ratioP1;P1;durP2;ratioP2;P2;SDS_P1;SDS_P2;PMS_P1;PMS_P2;Temp;Humidity;BMP_temperature;BMP_pressure;BME280_temperature;BME280_humidity;BME280_pressure;Samples;Min_cycle;Max_cycle;Signal;HPM_P1;HPM_P2
2023/03/16 00:00:55;;;;;;;7.65;3.10;;;3.10;99.90;;;;;;5021684;28;20148;-89
2023/03/16 00:03:21;;;;;;;8.65;2.97;;;3.10;99.90;;;;;;5016641;28;20660;-87
2023/03/16 00:05:52;;;;;;;11.43;3.38;;;3.10;99.90;;;;;;5019783;28;20097;-88
2023/03/16 00:08:18;;;;;;;7.32;2.80;;;3.10;99.90;;;;;;5003980;28;20051;-88
2023/03/16 00:10:46;;;;;;;8.18;2.70;;;3.10;99.90;;;;;;5017505;28;20407;-88
2023/03/16 00:13:22;;;;;;;8.00;2.95;;;3.10;99.90;;;;;;5003813;28;20345;-89
2023/03/16 00:15:50;;;;;;;8.07;3.28;;;3.10;99.90;;;;;;5036999;28;20049;-89
2023/03/16 00:18:16;;;;;;;5.85;2.88;;;3.10;99.90;;;;;;5017861;28;20340;-89
2023/03/16 00:20:41;;;;;;;5.40;2.85;;;3.20;99.90;;;;;;5019274;28;20403;-88
2023/03/16 00:23:10;;;;;;;8.65;3.40;;;3.30;99.90;;;;;;5003419;28;20037;-88
2023/03/16 00:25:36;;;;;;;5.78;3.10;;;3.30;99.90;;;;;;5003991;28;20161;-89
2023/03/16 00:28:02;;;;;;;9.90;3.75;;;3.30;99.90;;;;;;5025215;28;20247;-88
2023/03/16 00:30:31;;;;;;;6.68;3.10;;;3.30;99.90;;;;;;5002737;28;20087;-89
2023/03/16 00:32:57;;;;;;;7.50;2.63;;;3.30;99.90;;;;;;5002433;28;20103;-89
2023/03/16 00:35:24;;;;;;;6.47;3.03;;;3.30;99.90;;;;;;5001145;28;20054;-89
2023/03/16 00:37:49;;;;;;;6.75;3.13;;;3.30;99.90;;;;;;5002696;28;20148;-89
2023/03/16 00:40:16;;;;;;;5.57;3.10;;;3.30;99.90;;;;;;5029681;28;20128;-89
2023/03/16 00:42:42;;;;;;;5.82;2.83;;;3.30;99.90;;;;;;5017155;28;20261;-89
2023/03/16 00:45:08;;;;;;;6.03;3.45;;;3.40;99.90;;;;;;5018416;28;20414;-89
2023/03/16 00:47:34;;;;;;;6.18;3.30;;;3.40;99.90;;;;;;5018683;28;20107;-89
2023/03/16 00:50:01;;;;;;;6.38;3.00;;;3.40;99.90;;;;;;5001082;28;20049;-89
2023/03/16 00:52:28;;;;;;;6.97;3.08;;;3.50;99.90;;;;;;5003216;28;20530;-88
2023/03/16 00:54:54;;;;;;;5.00;2.60;;;3.50;95.90;;;;;;5015626;28;20128;-88
2023/03/16 00:57:23;;;;;;;6.65;3.75;;;3.50;98.70;;;;;;5000302;28;20044;-88
2023/03/16 00:59:49;;;;;;;8.30;3.30;;;3.60;99.90;;;;;;5018047;28;20506;-89
2023/03/16 01:02:18;;;;;;;5.20;3.22;;;3.50;99.90;;;;;;5018901;28;20045;-88
2023/03/16 01:04:46;;;;;;;6.78;3.05;;;3.50;99.90;;;;;;5015737;28;20073;-89
2023/03/16 01:07:13;;;;;;;9.75;3.22;;;3.60;23.90;;;;;;5013973;28;20112;-89
2023/03/16 01:09:40;;;;;;;6.15;3.28;;;3.60;96.90;;;;;;5026941;28;20085;-89
2023/03/16 01:12:13;;;;;;;7.43;3.25;;;3.60;32.20;;;;;;5000458;28;20030;-88
2023/03/16 01:14:40;;;;;;;8.48;3.38;;;3.60;99.90;;;;;;5034130;28;20354;-89
2023/03/16 01:17:07;;;;;;;5.57;3.30;;;3.60;99.90;;;;;;5000820;28;20480;-88
2023/03/16 01:19:34;;;;;;;9.68;3.47;;;3.60;99.90;;;;;;5001199;28;20041;-89
2023/03/16 01:22:05;;;;;;;6.35;3.50;;;3.60;99.90;;;;;;5001150;28;20513;-89
2023/03/16 01:24:31;;;;;;;6.30;3.22;;;3.60;99.90;;;;;;5019066;28;20506;-89
2023/03/16 01:26:57;;;;;;;5.25;3.38;;;3.60;99.90;;;;;;5022380;28;20478;-89
2023/03/16 01:29:24;;;;;;;7.45;3.70;;;3.60;99.90;;;;;;5020378;28;20067;-88
2023/03/16 01:31:49;;;;;;;10.13;3.30;;;3.60;99.90;;;;;;5003665;28;20532;-89
2023/03/16 01:34:17;;;;;;;8.55;4.00;;;3.60;99.90;;;;;;5002270;28;20125;-88
2023/03/16 01:36:46;;;;;;;5.97;3.80;;;3.60;99.90;;;;;;5017721;28;20649;-88
2023/03/16 01:39:12;;;;;;;11.95;4.25;;;3.60;1.00;;;;;;5025706;28;20037;-89
2023/03/16 01:41:40;;;;;;;9.80;3.80;;;3.60;99.90;;;;;;5018577;28;20044;-88
2023/03/16 01:44:14;;;;;;;11.60;4.45;;;3.60;99.90;;;;;;5000286;28;20033;-89
2023/03/16 01:46:42;;;;;;;13.32;4.13;;;3.70;99.90;;;;;;5003217;28;20041;-89
2023/03/16 01:49:19;;;;;;;8.43;4.47;;;3.60;99.90;;;;;;5001260;28;20048;-88
2023/03/16 01:52:01;;;;;;;5.63;3.88;;;3.50;99.90;;;;;;5020068;28;20073;-89
2023/03/16 01:54:38;;;;;;;7.88;4.40;;;3.50;1.00;;;;;;5004034;28;20271;-88
2023/03/16 01:57:09;;;;;;;8.80;4.50;;;3.60;1.00;;;;;;4999359;28;20072;-89
2023/03/16 01:59:41;;;;;;;9.55;4.75;;;3.70;99.90;;;;;;5016966;28;20667;-89
2023/03/16 02:02:09;;;;;;;15.43;5.07;;;3.60;99.90;;;;;;5020147;28;20040;-89
2023/03/16 02:05:01;;;;;;;9.68;4.80;;;3.60;99.90;;;;;;5000415;28;20046;-89
2023/03/16 02:07:29;;;;;;;10.95;5.03;;;3.70;99.90;;;;;;4999668;28;20045;-89
2023/03/16 02:10:01;;;;;;;10.20;5.00;;;3.60;99.90;;;;;;5025501;28;20318;-89
2023/03/16 02:12:28;;;;;;;10.10;4.72;;;3.60;1.00;;;;;;5025727;28;20482;-89
2023/03/16 02:14:54;;;;;;;9.82;4.55;;;3.60;1.00;;;;;;5003942;28;20277;-88
2023/03/16 02:17:26;;;;;;;7.45;4.88;;;3.70;99.90;;;;;;5004605;28;20124;-89
2023/03/16 02:20:30;;;;;;;8.55;4.97;;;3.70;99.90;;;;;;5008869;28;20034;-89
2023/03/16 02:22:56;;;;;;;7.93;4.70;;;3.70;99.90;;;;;;5040864;28;20033;-89
2023/03/16 02:25:43;;;;;;;7.53;4.82;;;3.70;99.90;;;;;;5003007;28;20098;-88
2023/03/16 02:28:29;;;;;;;12.43;5.18;;;3.80;99.90;;;;;;5003067;28;20053;-88
2023/03/16 02:30:56;;;;;;;10.18;5.22;;;3.80;99.90;;;;;;5003152;28;20517;-89
2023/03/16 02:33:22;;;;;;;10.50;4.43;;;3.70;99.90;;;;;;5021763;28;20056;-88
2023/03/16 02:35:48;;;;;;;6.88;4.43;;;3.80;99.90;;;;;;5000994;28;20092;-89
2023/03/16 02:38:13;;;;;;;9.68;4.70;;;3.80;99.90;;;;;;5006066;28;20045;-89
2023/03/16 02:40:42;;;;;;;7.60;4.72;;;3.80;99.90;;;;;;5021429;28;20123;-89
2023/03/16 02:43:19;;;;;;;7.22;4.43;;;3.80;99.90;;;;;;5018764;28;20049;-89
2023/03/16 02:45:52;;;;;;;8.68;4.47;;;3.90;99.90;;;;;;5006119;28;20103;-89
2023/03/16 02:48:28;;;;;;;9.93;5.28;;;3.90;99.90;;;;;;5017326;28;20413;-89
2023/03/16 02:50:54;;;;;;;8.32;4.68;;;4.00;99.90;;;;;;5015810;28;20383;-89
2023/03/16 02:53:20;;;;;;;7.20;4.60;;;4.00;89.00;;;;;;5020609;28;20124;-89
2023/03/16 02:55:46;;;;;;;8.80;4.50;;;4.00;22.80;;;;;;5029664;28;20726;-89
2023/03/16 02:58:13;;;;;;;7.22;4.30;;;4.00;1.00;;;;;;5049656;28;20034;-89
2023/03/16 03:00:41;;;;;;;8.10;4.57;;;4.10;1.00;;;;;;5002760;28;20038;-89
2023/03/16 03:03:08;;;;;;;9.93;4.57;;;4.10;1.00;;;;;;5002586;28;20060;-89
2023/03/16 03:05:35;;;;;;;7.22;4.70;;;4.10;1.00;;;;;;5002977;28;20202;-89
2023/03/16 03:08:00;;;;;;;8.27;4.70;;;4.10;1.00;;;;;;5019165;28;20314;-89
2023/03/16 03:10:26;;;;;;;6.30;4.25;;;4.10;99.90;;;;;;5019285;28;20049;-89
2023/03/16 03:12:52;;;;;;;7.90;4.50;;;4.20;99.90;;;;;;5001142;28;20104;-89
2023/03/16 03:15:18;;;;;;;6.25;4.18;;;4.20;99.90;;;;;;5021889;28;20682;-88
2023/03/16 03:17:44;;;;;;;8.00;3.80;;;4.20;99.90;;;;;;5017459;28;20381;-89
2023/03/16 03:20:17;;;;;;;5.43;4.22;;;4.20;99.90;;;;;;5005222;28;20034;-89
2023/03/16 03:22:45;;;;;;;9.25;4.47;;;4.20;1.00;;;;;;5005939;28;20041;-89
2023/03/16 03:25:13;;;;;;;9.27;4.10;;;4.20;1.00;;;;;;5004712;28;20048;-88
2023/03/16 03:27:43;;;;;;;9.82;4.20;;;4.20;1.00;;;;;;5005032;28;20041;-88
2023/03/16 03:30:14;;;;;;;6.63;3.92;;;4.20;1.00;;;;;;5004535;28;20073;-89
2023/03/16 03:32:40;;;;;;;6.80;4.00;;;4.20;99.90;;;;;;5023643;28;20385;-88
2023/03/16 03:35:11;;;;;;;9.52;4.07;;;4.20;99.90;;;;;;5020815;28;20054;-89
2023/03/16 03:37:39;;;;;;;8.75;4.38;;;4.20;1.00;;;;;;5023888;28;20044;-88
2023/03/16 03:40:06;;;;;;;8.73;4.03;;;4.20;1.00;;;;;;5019768;28;20104;-89
2023/03/16 03:42:31;;;;;;;6.97;4.00;;;4.20;1.00;;;;;;5025607;28;20029;-89
2023/03/16 03:44:57;;;;;;;9.43;4.28;;;4.20;1.00;;;;;;5006358;28;20481;-89
2023/03/16 03:47:23;;;;;;;6.70;4.10;;;4.20;1.00;;;;;;5017522;28;20141;-89
2023/03/16 03:49:49;;;;;;;10.50;4.60;;;4.20;1.00;;;;;;5033382;28;20042;-89
2023/03/16 03:52:15;;;;;;;8.27;4.13;;;4.20;1.80;;;;;;5020175;28;20437;-89
2023/03/16 03:54:40;;;;;;;7.78;4.50;;;4.20;2.70;;;;;;5001853;28;20041;-89
2023/03/16 03:57:06;;;;;;;6.03;4.35;;;4.20;99.90;;;;;;5005065;28;20053;-89
2023/03/16 03:59:32;;;;;;;6.78;4.70;;;4.20;99.90;;;;;;5019005;28;20037;-89
2023/03/16 04:01:57;;;;;;;6.00;3.78;;;4.10;99.90;;;;;;5003772;28;20045;-88
2023/03/16 04:04:23;;;;;;;6.78;4.10;;;4.10;99.90;;;;;;5001935;28;20121;-88
2023/03/16 04:06:50;;;;;;;4.80;4.05;;;4.10;99.90;;;;;;5003786;28;20096;-89
2023/03/16 04:09:16;;;;;;;6.05;4.30;;;4.10;99.90;;;;;;5002387;28;20037;-89
2023/03/16 04:11:41;;;;;;;6.07;3.85;;;4.10;99.90;;;;;;5017418;28;20034;-88
2023/03/16 04:14:08;;;;;;;7.43;4.00;;;4.10;99.90;;;;;;5020801;28;20041;-89
2023/03/16 04:16:33;;;;;;;9.20;4.07;;;4.10;99.90;;;;;;5002268;28;20034;-89
2023/03/16 04:19:00;;;;;;;8.30;4.65;;;4.10;99.90;;;;;;5005212;28;20044;-88
2023/03/16 04:21:26;;;;;;;9.82;4.97;;;4.10;99.90;;;;;;5001299;28;20457;-88
2023/03/16 04:23:53;;;;;;;8.07;3.80;;;4.10;99.90;;;;;;5001526;28;20049;-89
2023/03/16 04:26:20;;;;;;;6.18;3.90;;;4.10;99.90;;;;;;5018528;28;20064;-89
2023/03/16 04:28:46;;;;;;;6.72;3.75;;;4.10;99.90;;;;;;5017799;28;20037;-90
2023/03/16 04:31:12;;;;;;;8.60;4.43;;;4.10;99.90;;;;;;5001593;28;20045;-88
2023/03/16 04:33:39;;;;;;;5.57;4.00;;;4.10;99.90;;;;;;5014388;28;20048;-89
2023/03/16 04:36:06;;;;;;;10.20;4.55;;;4.10;99.90;;;;;;5002040;28;20058;-88
2023/03/16 04:38:32;;;;;;;7.55;4.40;;;4.10;1.00;;;;;;5033856;28;20075;-88
2023/03/16 04:40:59;;;;;;;7.82;4.50;;;4.10;1.00;;;;;;5018570;28;20057;-89
2023/03/16 04:43:25;;;;;;;10.02;4.47;;;4.10;1.00;;;;;;5015923;28;20045;-89
2023/03/16 04:45:51;;;;;;;7.80;4.63;;;4.10;1.00;;;;;;5001004;28;20059;-89
2023/03/16 04:48:17;;;;;;;6.55;4.22;;;4.10;9.90;;;;;;5001499;28;20045;-89
2023/03/16 04:50:42;;;;;;;6.35;4.35;;;4.10;1.00;;;;;;5002182;28;20052;-89
2023/03/16 04:53:08;;;;;;;5.43;4.18;;;4.10;21.40;;;;;;5004366;28;20037;-89
2023/03/16 04:55:34;;;;;;;8.05;5.43;;;4.10;78.40;;;;;;5002115;28;20127;-89
2023/03/16 04:58:00;;;;;;;6.68;4.28;;;4.10;25.00;;;;;;5011834;28;20061;-89
2023/03/16 05:00:26;;;;;;;9.50;4.57;;;4.10;76.60;;;;;;5018445;28;20135;-88
2023/03/16 05:02:52;;;;;;;6.32;4.97;;;4.10;94.20;;;;;;4999556;28;20116;-89
2023/03/16 05:05:18;;;;;;;6.55;4.63;;;4.10;99.90;;;;;;5017336;28;20394;-89
2023/03/16 05:07:44;;;;;;;7.18;4.72;;;4.10;99.90;;;;;;5002465;28;20068;-89
2023/03/16 05:10:12;;;;;;;7.97;4.70;;;4.10;99.90;;;;;;5040691;28;20128;-84
2023/03/16 05:12:37;;;;;;;7.53;4.18;;;4.10;99.90;;;;;;5024812;28;20168;-85
2023/03/16 05:15:05;;;;;;;7.38;4.30;;;4.10;99.90;;;;;;4998353;28;20572;-85
2023/03/16 05:17:31;;;;;;;9.30;4.75;;;4.10;99.90;;;;;;4997379;28;20045;-85
2023/03/16 05:19:56;;;;;;;9.80;4.60;;;4.10;99.90;;;;;;4998880;28;20441;-85
2023/03/16 05:22:22;;;;;;;7.05;4.45;;;4.10;99.90;;;;;;4999094;28;20152;-84
2023/03/16 05:24:48;;;;;;;7.93;4.57;;;4.10;99.90;;;;;;4997684;28;20289;-84
2023/03/16 05:27:14;;;;;;;10.55;5.15;;;4.10;99.90;;;;;;5018307;28;20471;-85
2023/03/16 05:29:44;;;;;;;9.02;4.72;;;4.10;99.90;;;;;;5012381;28;20127;-84
2023/03/16 05:32:11;;;;;;;12.63;5.03;;;4.20;99.90;;;;;;4996005;28;20517;-84
2023/03/16 05:34:37;;;;;;;8.98;5.05;;;4.20;99.90;;;;;;4995104;28;20053;-84
2023/03/16 05:37:02;;;;;;;7.72;4.97;;;4.20;99.90;;;;;;5036595;28;20362;-85
2023/03/16 05:39:29;;;;;;;7.50;4.47;;;4.20;99.90;;;;;;4996695;28;20103;-84
2023/03/16 05:41:56;;;;;;;7.03;4.28;;;4.20;99.90;;;;;;5011729;28;20046;-85
2023/03/16 05:44:23;;;;;;;8.73;4.88;;;4.30;99.90;;;;;;4997997;28;20041;-84
2023/03/16 05:46:49;;;;;;;8.60;4.97;;;4.30;99.90;;;;;;5014803;28;20660;-84
2023/03/16 05:49:14;;;;;;;8.88;4.80;;;4.30;99.90;;;;;;5000088;28;20423;-85
2023/03/16 05:51:40;;;;;;;8.13;4.50;;;4.30;99.90;;;;;;5002435;28;20048;-85
2023/03/16 05:54:06;;;;;;;6.85;4.20;;;4.30;99.90;;;;;;5029891;28;20107;-85
2023/03/16 05:56:32;;;;;;;7.47;4.63;;;4.30;99.90;;;;;;5003693;28;20045;-84
2023/03/16 05:58:59;;;;;;;7.82;4.70;;;4.30;99.90;;;;;;5004044;28;20064;-84
2023/03/16 06:01:25;;;;;;;8.25;4.70;;;4.40;99.90;;;;;;5017679;28;20141;-84
2023/03/16 06:03:50;;;;;;;6.80;4.43;;;4.40;99.90;;;;;;5015006;28;20611;-84
2023/03/16 06:06:17;;;;;;;7.13;4.90;;;4.40;1.00;;;;;;4999577;28;20048;-85
2023/03/16 06:08:46;;;;;;;6.85;5.13;;;4.40;1.00;;;;;;5022599;28;20061;-85
2023/03/16 06:11:12;;;;;;;6.75;4.78;;;4.40;42.50;;;;;;5002367;28;20036;-84
2023/03/16 06:13:38;;;;;;;6.30;4.22;;;4.40;59.30;;;;;;5033108;28;20037;-84
2023/03/16 06:16:05;;;;;;;7.15;4.82;;;4.50;1.00;;;;;;4996932;28;20106;-84
2023/03/16 06:18:34;;;;;;;10.30;5.15;;;4.50;96.70;;;;;;5014712;28;20042;-84
2023/03/16 06:21:00;;;;;;;6.10;4.43;;;4.50;99.90;;;;;;5002085;28;20033;-85
2023/03/16 06:23:26;;;;;;;6.85;4.85;;;4.50;99.90;;;;;;5021175;28;20131;-83
2023/03/16 06:25:54;;;;;;;5.82;4.30;;;4.50;99.90;;;;;;5014882;28;20192;-85
2023/03/16 06:28:21;;;;;;;7.95;4.80;;;4.50;1.00;;;;;;5002527;28;20036;-84
2023/03/16 06:30:47;;;;;;;7.65;5.50;;;4.50;1.00;;;;;;5017744;28;20063;-85
2023/03/16 06:33:13;;;;;;;8.18;5.03;;;4.60;1.00;;;;;;4999404;28;20053;-84
2023/03/16 06:35:38;;;;;;;7.57;4.90;;;4.60;1.00;;;;;;5000619;28;20103;-84
2023/03/16 06:38:07;;;;;;;6.25;4.82;;;4.60;1.00;;;;;;5020141;28;20083;-84
2023/03/16 06:40:33;;;;;;;8.43;5.40;;;4.60;1.00;;;;;;4983148;28;20221;-85
2023/03/16 06:42:59;;;;;;;9.48;5.10;;;4.60;99.90;;;;;;5001304;28;20071;-84
2023/03/16 06:45:25;;;;;;;6.88;4.68;;;4.70;99.90;;;;;;5001203;28;20477;-84
2023/03/16 06:47:51;;;;;;;7.43;4.82;;;4.70;99.90;;;;;;5000610;28;20052;-85
2023/03/16 06:50:17;;;;;;;8.70;4.97;;;4.70;99.90;;;;;;4999602;28;20050;-84
2023/03/16 06:52:42;;;;;;;7.15;4.95;;;4.70;99.90;;;;;;5001613;28;20037;-85
2023/03/16 06:55:09;;;;;;;10.27;4.97;;;4.70;99.90;;;;;;4991107;28;20037;-85
2023/03/16 06:57:34;;;;;;;5.28;4.53;;;4.80;99.90;;;;;;5020601;28;20042;-84
2023/03/16 07:00:03;;;;;;;8.90;4.55;;;4.80;99.90;;;;;;5003291;28;20045;-84
2023/03/16 07:02:29;;;;;;;8.27;4.60;;;4.90;99.90;;;;;;4997393;28;20100;-84
2023/03/16 07:04:54;;;;;;;11.32;4.70;;;4.90;99.90;;;;;;5014793;28;20045;-84
2023/03/16 07:07:26;;;;;;;9.32;4.53;;;4.90;99.90;;;;;;5022746;28;20041;-85
2023/03/16 07:09:51;;;;;;;6.07;4.40;;;4.90;20.30;;;;;;4999502;28;20426;-84
2023/03/16 07:12:17;;;;;;;6.45;4.38;;;5.00;90.10;;;;;;5044686;28;20044;-84
2023/03/16 07:14:43;;;;;;;9.20;5.05;;;5.00;1.00;;;;;;4999905;28;20037;-85
2023/03/16 07:17:09;;;;;;;6.68;4.47;;;5.00;99.90;;;;;;5043345;28;20037;-85
2023/03/16 07:19:35;;;;;;;6.95;4.38;;;5.10;1.00;;;;;;5014579;28;20394;-84
2023/03/16 07:22:04;;;;;;;5.82;4.40;;;5.10;1.00;;;;;;4997698;28;20429;-84
2023/03/16 07:24:29;;;;;;;8.05;4.40;;;5.10;1.00;;;;;;5017088;28;20081;-85
2023/03/16 07:26:55;;;;;;;7.55;4.32;;;5.20;99.90;;;;;;5015663;28;20160;-84
2023/03/16 07:29:21;;;;;;;7.03;4.53;;;5.20;99.90;;;;;;4998911;28;20450;-84
2023/03/16 07:31:46;;;;;;;6.13;4.40;;;5.20;99.90;;;;;;5019031;28;20049;-84
2023/03/16 07:34:12;;;;;;;6.13;4.70;;;5.20;99.90;;;;;;5013950;28;20577;-84
2023/03/16 07:36:38;;;;;;;8.50;4.53;;;5.30;99.90;;;;;;5019239;28;20111;-84
2023/03/16 07:39:05;;;;;;;7.72;4.13;;;5.30;99.90;;;;;;5023385;28;20042;-84
2023/03/16 07:41:34;;;;;;;8.07;4.47;;;5.30;99.90;;;;;;5004343;28;20045;-85
2023/03/16 07:44:00;;;;;;;8.13;4.20;;;5.40;99.90;;;;;;5016735;28;20041;-84
2023/03/16 07:46:25;;;;;;;8.18;4.97;;;5.40;99.90;;;;;;5016939;28;20037;-84
2023/03/16 07:48:51;;;;;;;7.32;5.18;;;5.40;99.90;;;;;;5012741;28;20478;-85
2023/03/16 07:51:17;;;;;;;4.93;4.10;;;5.40;99.90;;;;;;5026228;28;20162;-85
2023/03/16 07:53:42;;;;;;;8.27;4.45;;;5.60;99.90;;;;;;5001578;28;20514;-84
2023/03/16 07:56:08;;;;;;;6.47;4.55;;;5.70;1.00;;;;;;5017888;28;20055;-84
2023/03/16 07:58:34;;;;;;;6.78;4.30;;;5.70;99.90;;;;;;5016877;28;20148;-84
2023/03/16 08:01:00;;;;;;;6.40;4.28;;;5.80;99.90;;;;;;5029610;28;20041;-84
2023/03/16 08:03:27;;;;;;;6.50;4.25;;;5.80;99.90;;;;;;4999197;28;20056;-84
2023/03/16 08:05:54;;;;;;;6.00;4.38;;;5.80;99.90;;;;;;5000086;28;20038;-84
2023/03/16 08:08:21;;;;;;;6.38;4.28;;;5.80;99.90;;;;;;4999739;28;20127;-85
2023/03/16 08:10:48;;;;;;;7.65;4.43;;;5.90;99.90;;;;;;5017436;28;20048;-85
2023/03/16 08:13:14;;;;;;;7.90;4.30;;;5.90;1.00;;;;;;4999451;28;20112;-84
2023/03/16 08:15:41;;;;;;;6.20;4.07;;;5.90;65.10;;;;;;5011645;28;20064;-85
2023/03/16 08:18:06;;;;;;;5.68;4.00;;;5.80;99.90;;;;;;5012504;28;20823;-84
2023/03/16 08:20:33;;;;;;;6.38;4.60;;;5.80;99.90;;;;;;4997951;28;20083;-84
2023/03/16 08:22:59;;;;;;;6.60;4.10;;;5.80;91.20;;;;;;4998218;28;20033;-84
2023/03/16 08:25:25;;;;;;;8.57;4.82;;;5.80;99.90;;;;;;5045794;28;20087;-84
2023/03/16 08:27:51;;;;;;;6.63;4.30;;;5.80;1.00;;;;;;5000231;28;21579;-84
2023/03/16 08:30:17;;;;;;;7.00;4.75;;;5.70;1.00;;;;;;5002452;28;20148;-84
2023/03/16 08:32:46;;;;;;;8.77;4.63;;;5.70;99.90;;;;;;4998107;28;20605;-84
2023/03/16 08:35:13;;;;;;;7.05;4.50;;;5.70;99.90;;;;;;5000715;28;20103;-84
2023/03/16 08:37:40;;;;;;;6.00;4.30;;;5.70;99.90;;;;;;5026334;28;20498;-84
2023/03/16 08:40:12;;;;;;;7.75;4.80;;;5.90;99.90;;;;;;4999342;28;20073;-85
2023/03/16 08:42:38;;;;;;;7.75;4.88;;;5.80;99.90;;;;;;5031601;28;20053;-84
2023/03/16 08:45:08;;;;;;;6.20;4.30;;;5.90;99.90;;;;;;5015194;28;20037;-84
2023/03/16 08:47:39;;;;;;;6.57;4.43;;;5.90;99.90;;;;;;4998899;28;20034;-84
2023/03/16 08:50:11;;;;;;;7.55;4.57;;;5.90;99.90;;;;;;4999534;28;20536;-84
2023/03/16 08:52:37;;;;;;;8.25;4.65;;;6.00;99.90;;;;;;5033106;28;20359;-84
2023/03/16 08:55:04;;;;;;;7.30;4.90;;;6.00;99.90;;;;;;5029858;28;20038;-84
2023/03/16 08:57:32;;;;;;;7.50;4.78;;;6.00;99.90;;;;;;4999188;28;20080;-85
2023/03/16 08:59:58;;;;;;;8.60;4.70;;;6.00;99.90;;;;;;5037218;28;20096;-85
2023/03/16 09:02:24;;;;;;;7.30;4.82;;;5.90;99.90;;;;;;4998549;28;20049;-85
2023/03/16 09:04:51;;;;;;;7.15;4.93;;;5.90;99.90;;;;;;4993232;28;20101;-85
2023/03/16 09:07:17;;;;;;;9.27;4.95;;;5.90;99.90;;;;;;5003313;28;20037;-85
2023/03/16 09:09:45;;;;;;;5.78;4.70;;;5.90;99.90;;;;;;5014391;28;20530;-84
2023/03/16 09:12:14;;;;;;;6.75;5.07;;;5.90;99.90;;;;;;5000247;28;20041;-84
2023/03/16 09:14:39;;;;;;;7.53;5.22;;;5.90;99.90;;;;;;5000605;28;20305;-84
2023/03/16 09:17:10;;;;;;;7.53;4.80;;;5.90;99.90;;;;;;5012910;28;20087;-84
2023/03/16 09:19:36;;;;;;;8.13;5.07;;;5.90;99.90;;;;;;5000962;28;20410;-85
2023/03/16 09:22:02;;;;;;;9.40;5.40;;;5.90;99.90;;;;;;5001032;28;20045;-84
2023/03/16 09:24:28;;;;;;;6.65;4.75;;;6.00;99.90;;;;;;5002454;28;20099;-84
2023/03/16 09:26:54;;;;;;;6.30;4.60;;;6.00;99.90;;;;;;5020435;28;20037;-84
2023/03/16 09:29:21;;;;;;;7.47;4.90;;;6.10;99.90;;;;;;5000721;28;20047;-84
2023/03/16 09:31:47;;;;;;;7.32;5.63;;;6.20;99.90;;;;;;5018421;28;20033;-85
2023/03/16 09:34:13;;;;;;;8.70;5.15;;;6.20;99.90;;;;;;5030084;28;20047;-85
2023/03/16 09:36:39;;;;;;;7.82;5.35;;;6.30;99.90;;;;;;5000253;28;20045;-84
2023/03/16 09:39:05;;;;;;;7.03;5.30;;;6.40;99.90;;;;;;4997879;28;20040;-84
2023/03/16 09:41:55;;;;;;;8.75;5.40;;;6.50;99.90;;;;;;5019457;28;20052;-85
2023/03/16 09:44:44;;;;;;;6.85;5.30;;;6.60;99.90;;;;;;5005422;28;20120;-84
2023/03/16 09:47:11;;;;;;;8.57;5.18;;;6.60;99.90;;;;;;4971087;28;20203;-85
2023/03/16 09:49:42;;;;;;;6.97;4.95;;;6.70;99.90;;;;;;4999753;28;20037;-85
2023/03/16 09:52:19;;;;;;;9.60;5.65;;;6.80;99.90;;;;;;5032137;28;20041;-84
2023/03/16 09:54:55;;;;;;;8.35;4.88;;;7.00;99.90;;;;;;5019903;28;20053;-85
2023/03/16 09:57:36;;;;;;;7.50;5.28;;;6.80;99.90;;;;;;5003675;28;20026;-84
2023/03/16 10:00:18;;;;;;;8.30;5.30;;;6.70;99.90;;;;;;5005507;28;20062;-84
2023/03/16 10:03:20;;;;;;;7.68;4.95;;;6.70;99.90;;;;;;5014572;28;20053;-84
2023/03/16 10:05:52;;;;;;;7.40;5.00;;;6.90;99.90;;;;;;5019452;28;20055;-84
2023/03/16 10:08:30;;;;;;;8.57;5.18;;;7.00;99.90;;;;;;5028854;28;20124;-84
2023/03/16 10:11:31;;;;;;;8.82;5.55;;;6.90;99.90;;;;;;5001623;28;20870;-85
2023/03/16 10:14:16;;;;;;;8.85;5.60;;;6.80;99.90;;;;;;5004829;28;20045;-84
2023/03/16 10:17:02;;;;;;;;;;;6.80;99.90;;;;;;5019373;28;20038;-84
2023/03/16 10:19:48;;;;;;;;;;;6.70;99.90;;;;;;5016784;28;19928;-84
2023/03/16 10:22:22;;;;;;;;;;;6.80;99.90;;;;;;5021635;28;20245;-85
2023/03/16 10:25:11;;;;;;;7.53;5.18;;;6.90;99.90;;;;;;5046633;28;19986;-84
2023/03/16 10:27:40;;;;;;;9.77;5.32;;;6.90;99.90;;;;;;5041767;28;20055;-83
2023/03/16 10:30:17;;;;;;;8.77;5.32;;;6.80;99.90;;;;;;5002886;28;20072;-84
2023/03/16 10:32:47;;;;;;;8.23;5.40;;;6.70;99.90;;;;;;5042788;28;20501;-84
2023/03/16 10:35:40;;;;;;;10.60;6.22;;;6.80;99.90;;;;;;5002575;28;20049;-84
2023/03/16 10:38:49;;;;;;;10.70;6.00;;;6.80;99.90;;;;;;5004351;28;20069;-85
2023/03/16 10:41:18;;;;;;;8.02;5.38;;;6.70;99.90;;;;;;5001412;28;20281;-85
2023/03/16 10:43:51;;;;;;;7.85;5.63;;;6.80;99.90;;;;;;5002279;28;20059;-84
2023/03/16 10:46:17;;;;;;;8.13;5.22;;;6.80;99.90;;;;;;5002156;28;20037;-85
2023/03/16 10:48:52;;;;;;;8.60;5.63;;;6.90;99.90;;;;;;4999143;28;20045;-84
2023/03/16 10:51:26;;;;;;;7.63;5.40;;;7.00;99.90;;;;;;5002245;28;20387;-84
2023/03/16 10:54:03;;;;;;;8.80;5.53;;;6.90;99.90;;;;;;5016553;28;20045;-85
2023/03/16 10:56:32;;;;;;;7.40;5.35;;;7.00;99.90;;;;;;5039678;28;20124;-84
2023/03/16 10:58:59;;;;;;;9.27;5.40;;;6.90;99.90;;;;;;5017855;28;20033;-85
2023/03/16 11:01:27;;;;;;;8.10;5.03;;;6.80;99.90;;;;;;5015481;28;20079;-84
2023/03/16 11:03:55;;;;;;;8.75;5.30;;;6.90;99.90;;;;;;5013983;28;20091;-85
2023/03/16 11:06:29;;;;;;;8.68;4.97;;;6.90;99.90;;;;;;5002312;28;20488;-84
2023/03/16 11:09:05;;;;;;;9.55;4.95;;;6.90;99.90;;;;;;5024405;28;20029;-84
2023/03/16 11:11:32;;;;;;;7.43;4.82;;;6.90;99.90;;;;;;5014292;28;20402;-84
2023/03/16 11:14:00;;;;;;;9.68;5.68;;;7.10;99.90;;;;;;5014776;28;20382;-84
2023/03/16 11:16:36;;;;;;;8.30;4.80;;;7.00;99.90;;;;;;5033733;28;20042;-84
2023/03/16 11:19:17;;;;;;;7.72;4.78;;;7.00;99.90;;;;;;5016229;28;20343;-85
2023/03/16 11:21:56;;;;;;;8.40;4.85;;;7.20;99.90;;;;;;5000471;28;20045;-85
2023/03/16 11:24:44;;;;;;;5.97;4.50;;;7.20;99.90;;;;;;5016910;28;20071;-84
2023/03/16 11:27:32;;;;;;;7.10;4.97;;;7.30;99.90;;;;;;5002326;28;20111;-85
2023/03/16 11:30:13;;;;;;;9.13;5.20;;;7.40;99.90;;;;;;4997818;28;20133;-84
2023/03/16 11:32:45;;;;;;;7.03;5.10;;;7.40;99.90;;;;;;5016014;28;20041;-84
2023/03/16 11:35:35;;;;;;;11.45;5.55;;;7.40;99.90;;;;;;4998592;28;20049;-84
2023/03/16 11:38:36;;;;;;;9.43;5.07;;;7.40;99.90;;;;;;5022408;28;20360;-84
2023/03/16 11:41:09;;;;;;;8.25;5.32;;;7.60;99.90;;;;;;4936181;28;20050;-84
2023/03/16 11:43:54;;;;;;;9.23;4.90;;;7.70;99.90;;;;;;5000566;28;20107;-85
2023/03/16 11:46:27;;;;;;;6.43;4.93;;;7.70;99.90;;;;;;5015181;28;20045;-84
2023/03/16 11:49:21;;;;;;;7.78;4.70;;;7.80;99.90;;;;;;5028803;28;20247;-84
2023/03/16 11:52:09;;;;;;;8.40;4.93;;;8.00;99.90;;;;;;5016295;28;20033;-85
2023/03/16 11:54:38;;;;;;;11.73;4.57;;;8.00;99.90;;;;;;5001101;28;20041;-84
2023/03/16 11:57:31;;;;;;;12.77;5.22;;;8.20;99.90;;;;;;5001004;28;20075;-84
2023/03/16 12:00:38;;;;;;;6.97;5.45;;;8.10;99.90;;;;;;4977873;28;20052;-85
2023/03/16 12:03:41;;;;;;;6.50;4.40;;;8.30;99.90;;;;;;5028165;28;20038;-84
2023/03/16 12:06:32;;;;;;;6.63;4.50;;;8.20;99.90;;;;;;4999243;28;20037;-84
2023/03/16 12:09:01;;;;;;;8.02;4.90;;;8.30;99.90;;;;;;5023991;28;20462;-84
2023/03/16 12:11:35;;;;;;;7.43;4.38;;;8.40;99.90;;;;;;4999837;28;20041;-84
2023/03/16 12:14:17;;;;;;;8.98;4.57;;;8.70;99.90;;;;;;5030179;28;20064;-85
2023/03/16 12:16:54;;;;;;;8.20;4.50;;;8.70;99.90;;;;;;5014903;28;20044;-84
2023/03/16 12:19:44;;;;;;;8.52;4.30;;;8.90;99.90;;;;;;5026868;28;20051;-84
2023/03/16 12:22:40;;;;;;;6.60;4.28;;;9.00;99.90;;;;;;5012254;28;20522;-85
2023/03/16 12:25:20;;;;;;;7.47;4.10;;;8.80;99.90;;;;;;4996068;28;20132;-84
2023/03/16 12:27:51;;;;;;;6.78;4.20;;;9.20;99.90;;;;;;5019666;28;20170;-88
2023/03/16 12:30:34;;;;;;;5.65;4.25;;;9.20;99.90;;;;;;5022161;28;20435;-88
2023/03/16 12:33:17;;;;;;;12.10;4.57;;;9.30;99.30;;;;;;4996342;28;20029;-89
2023/03/16 12:36:06;;;;;;;6.75;4.25;;;9.10;1.00;;;;;;5020836;28;20522;-88
2023/03/16 12:38:53;;;;;;;7.88;4.57;;;9.30;1.00;;;;;;5011091;28;20042;-88
2023/03/16 12:41:35;;;;;;;6.32;4.20;;;9.50;99.90;;;;;;5001160;28;20037;-87
2023/03/16 12:44:16;;;;;;;8.05;4.60;;;9.70;99.90;;;;;;5002342;28;20108;-88
2023/03/16 12:46:52;;;;;;;6.22;3.88;;;9.90;97.30;;;;;;5043886;28;20045;-88
2023/03/16 12:49:19;;;;;;;5.45;4.10;;;9.80;99.90;;;;;;5015626;28;20108;-88
2023/03/16 12:51:47;;;;;;;7.90;4.28;;;9.70;1.00;;;;;;5002832;28;20057;-88
2023/03/16 12:54:22;;;;;;;6.88;4.28;;;9.70;94.30;;;;;;4999620;28;20253;-88
2023/03/16 12:56:49;;;;;;;;;;;9.70;99.90;;;;;;5001560;28;20045;-88
2023/03/16 12:59:20;;;;;;;6.15;3.83;;;9.80;99.90;;;;;;5003952;28;19917;-88
2023/03/16 13:01:56;;;;;;;4.90;3.63;;;9.50;99.90;;;;;;5013864;28;20048;-88
2023/03/16 13:04:40;;;;;;;6.95;4.25;;;9.70;1.00;;;;;;5025954;28;20045;-89
2023/03/16 13:07:15;;;;;;;6.20;3.65;;;9.90;99.90;;;;;;5015473;28;20065;-88
2023/03/16 13:09:47;;;;;;;7.53;4.28;;;9.80;99.90;;;;;;4999364;28;20045;-89
2023/03/16 13:12:37;;;;;;;5.68;3.90;;;9.70;99.90;;;;;;5017434;28;20075;-89
2023/03/16 13:15:28;;;;;;;4.22;3.33;;;9.60;99.90;;;;;;4998978;28;20371;-88